Time;durP1;ratioP1;P1;durP2;ratioP2;P2;SDS_P1;SDS_P2;PMS_P1;PMS_P2;Temp;Humidity;BMP_temperature;BMP_pressure;BME280_temperature;BME280_humidity;BME280_pressure;Samples;Min_cycle;Max_cycle;Signal;HPM_P1;HPM_P2
2022/09/26 00:02:19;;;;;;;3.50;1.30;;;11.40;99.90;;;;;;5087395;28;20844;-73
2022/09/26 00:04:45;;;;;;;3.13;1.40;;;11.40;99.90;;;;;;5079654;28;20470;-74
2022/09/26 00:07:11;;;;;;;2.85;1.33;;;11.40;99.90;;;;;;5054197;28;20647;-72
2022/09/26 00:09:37;;;;;;;4.97;1.67;;;11.40;99.90;;;;;;5047189;28;20032;-73
2022/09/26 00:12:03;;;;;;;5.10;1.83;;;11.40;99.90;;;;;;5063293;28;20380;-73
2022/09/26 00:14:29;;;;;;;5.05;1.80;;;11.40;99.90;;;;;;5073666;28;20111;-73
2022/09/26 00:16:55;;;;;;;2.53;1.48;;;11.40;99.90;;;;;;5086293;28;20042;-73
2022/09/26 00:19:21;;;;;;;3.22;1.65;;;11.40;99.90;;;;;;5086073;28;20124;-73
2022/09/26 00:21:47;;;;;;;4.35;1.42;;;11.50;99.90;;;;;;5085532;28;20036;-73
2022/09/26 00:24:14;;;;;;;6.03;2.05;;;11.40;99.90;;;;;;5085523;28;20044;-73
2022/09/26 00:26:39;;;;;;;;;;;11.40;99.90;;;;;;5073735;28;20032;-73
2022/09/26 00:29:08;;;;;;;2.72;1.60;;;11.40;99.90;;;;;;5057114;28;20379;-73
2022/09/26 00:31:37;;;;;;;5.82;1.70;;;11.40;99.90;;;;;;5061727;28;20044;-73
2022/09/26 00:34:03;;;;;;;5.18;1.73;;;11.40;99.90;;;;;;5064321;28;20041;-73
2022/09/26 00:36:29;;;;;;;3.17;1.50;;;11.40;99.90;;;;;;5063913;28;20060;-73
2022/09/26 00:38:55;;;;;;;4.07;1.58;;;11.50;99.90;;;;;;5070601;28;20049;-73
2022/09/26 00:41:21;;;;;;;2.60;1.55;;;11.50;99.90;;;;;;5060288;28;20037;-73
2022/09/26 00:43:49;;;;;;;2.40;1.55;;;11.50;99.90;;;;;;5068629;28;20660;-73
2022/09/26 00:46:45;;;;;;;5.30;1.55;;;11.50;99.90;;;;;;5069323;28;20041;-73
2022/09/26 00:49:35;;;;;;;4.35;1.52;;;11.50;99.90;;;;;;5076499;28;20099;-73
2022/09/26 00:52:25;;;;;;;3.65;1.50;;;11.60;99.90;;;;;;5063963;28;20160;-73
2022/09/26 00:54:55;;;;;;;3.05;1.30;;;11.60;99.90;;;;;;5071683;28;20578;-73
2022/09/26 00:57:30;;;;;;;3.03;1.38;;;11.50;99.90;;;;;;5078394;28;20469;-73
2022/09/26 01:00:00;;;;;;;5.30;1.55;;;11.50;99.90;;;;;;5070558;28;20525;-74
2022/09/26 01:02:29;;;;;;;2.83;1.40;;;11.50;99.90;;;;;;5071746;28;20042;-73
2022/09/26 01:04:57;;;;;;;4.53;1.50;;;11.50;99.90;;;;;;5073548;28;20034;-73
2022/09/26 01:07:26;;;;;;;4.00;1.75;;;11.50;99.90;;;;;;5068958;28;20038;-73
2022/09/26 01:09:53;;;;;;;1.80;1.25;;;11.60;99.90;;;;;;5083988;28;20508;-73
2022/09/26 01:12:22;;;;;;;5.22;1.55;;;11.50;99.90;;;;;;5068324;28;20487;-73
2022/09/26 01:14:52;;;;;;;4.57;1.60;;;11.50;99.90;;;;;;5073812;28;20050;-73
2022/09/26 01:17:21;;;;;;;6.13;1.42;;;11.60;99.90;;;;;;5067884;28;20038;-73
2022/09/26 01:20:15;;;;;;;3.53;1.40;;;11.60;99.90;;;;;;5068023;28;20057;-73
2022/09/26 01:23:04;;;;;;;6.57;1.52;;;11.60;99.90;;;;;;5070707;28;20038;-73
2022/09/26 01:25:49;;;;;;;4.55;1.60;;;11.60;99.90;;;;;;5054671;28;20038;-73
2022/09/26 01:28:52;;;;;;;6.03;1.67;;;11.60;99.90;;;;;;5058551;28;20054;-73
2022/09/26 01:31:42;;;;;;;2.75;1.40;;;11.70;99.90;;;;;;5083001;28;20117;-74
2022/09/26 01:34:22;;;;;;;7.57;1.52;;;11.60;99.90;;;;;;5049491;28;20095;-73
2022/09/26 01:37:09;;;;;;;5.00;1.45;;;11.60;99.90;;;;;;5071468;28;20035;-73
2022/09/26 01:39:44;;;;;;;3.38;1.65;;;11.50;99.90;;;;;;5081011;28;20124;-73
2022/09/26 01:42:35;;;;;;;4.05;1.73;;;11.50;99.90;;;;;;5075472;28;20118;-73
2022/09/26 01:45:12;;;;;;;3.25;1.73;;;11.50;99.90;;;;;;5070645;28;20550;-73
2022/09/26 01:47:43;;;;;;;4.95;1.52;;;11.60;99.90;;;;;;5067429;28;20376;-74
2022/09/26 01:50:26;;;;;;;5.32;2.08;;;11.60;99.90;;;;;;5072561;28;20049;-72
2022/09/26 01:53:04;;;;;;;4.80;1.60;;;11.60;99.90;;;;;;5061312;28;20057;-73
2022/09/26 01:55:40;;;;;;;4.63;1.95;;;11.60;99.90;;;;;;5073173;28;20551;-73
2022/09/26 01:58:24;;;;;;;6.13;2.10;;;11.60;99.90;;;;;;5080694;28;20123;-73
2022/09/26 02:00:51;;;;;;;3.60;1.70;;;11.60;99.90;;;;;;5070781;28;20149;-73
2022/09/26 02:03:29;;;;;;;6.45;1.70;;;11.60;99.90;;;;;;5072392;28;20119;-73
2022/09/26 02:06:17;;;;;;;4.93;2.05;;;11.60;99.90;;;;;;5061571;28;20038;-73
2022/09/26 02:08:55;;;;;;;4.65;1.95;;;11.60;99.90;;;;;;5079820;28;20062;-72
2022/09/26 02:11:21;;;;;;;7.00;2.17;;;11.60;99.90;;;;;;5075406;28;20388;-73
2022/09/26 02:13:50;;;;;;;7.75;2.30;;;11.60;99.90;;;;;;5059112;28;20054;-73
2022/09/26 02:16:38;;;;;;;7.80;2.58;;;11.50;99.90;;;;;;5072413;28;20495;-73
2022/09/26 02:19:31;;;;;;;6.47;2.47;;;11.50;99.90;;;;;;5072245;28;20616;-73
2022/09/26 02:21:59;;;;;;;4.65;2.50;;;11.50;99.90;;;;;;5074527;28;20411;-73
2022/09/26 02:24:26;;;;;;;6.60;2.28;;;11.50;99.90;;;;;;5057824;28;20050;-72
2022/09/26 02:26:52;;;;;;;5.90;2.45;;;11.50;99.90;;;;;;5068833;28;20058;-72
2022/09/26 02:29:19;;;;;;;7.38;2.60;;;11.50;99.90;;;;;;5072404;28;20108;-72
2022/09/26 02:32:14;;;;;;;7.55;3.13;;;11.50;99.90;;;;;;5046401;28;20069;-73
2022/09/26 02:34:41;;;;;;;8.05;3.13;;;11.50;99.90;;;;;;5069651;28;20034;-72
2022/09/26 02:37:08;;;;;;;5.22;3.20;;;11.40;99.90;;;;;;5052556;28;20038;-72
2022/09/26 02:39:34;;;;;;;6.32;3.15;;;11.40;99.90;;;;;;5066194;28;20046;-72
2022/09/26 02:42:03;;;;;;;5.90;2.83;;;11.40;99.90;;;;;;5031366;28;20054;-72
2022/09/26 02:44:34;;;;;;;5.63;2.60;;;11.40;99.90;;;;;;5067462;28;20031;-73
2022/09/26 02:47:19;;;;;;;7.03;3.17;;;11.40;99.90;;;;;;5071817;28;20050;-72
2022/09/26 02:50:24;;;;;;;7.10;3.17;;;11.40;99.90;;;;;;5063133;28;20073;-72
2022/09/26 02:53:19;;;;;;;6.22;2.83;;;11.30;99.90;;;;;;5068762;28;20457;-73
2022/09/26 02:55:58;;;;;;;7.45;3.08;;;11.30;99.90;;;;;;5064229;28;20442;-73
2022/09/26 02:58:58;;;;;;;8.27;3.10;;;11.20;99.90;;;;;;5078222;28;20046;-73
2022/09/26 03:01:52;;;;;;;8.00;3.20;;;11.30;99.90;;;;;;5081927;28;20407;-73
2022/09/26 03:04:55;;;;;;;7.28;3.30;;;11.30;99.90;;;;;;5081160;28;20083;-72
2022/09/26 03:07:41;;;;;;;6.80;3.28;;;11.20;99.90;;;;;;5072927;28;20042;-72
2022/09/26 03:10:09;;;;;;;6.38;3.17;;;11.30;99.90;;;;;;5065959;28;20625;-72
2022/09/26 03:12:36;;;;;;;9.60;3.33;;;11.20;99.90;;;;;;5053501;28;20044;-73
2022/09/26 03:15:05;;;;;;;7.82;3.25;;;11.20;99.90;;;;;;5069342;28;20478;-73
2022/09/26 03:17:33;;;;;;;5.03;2.97;;;11.20;99.90;;;;;;5073034;28;20050;-73
2022/09/26 03:20:05;;;;;;;6.70;3.13;;;11.20;99.90;;;;;;5065064;28;20036;-72
2022/09/26 03:22:32;;;;;;;8.50;3.20;;;11.20;99.90;;;;;;5064650;28;20479;-73
2022/09/26 03:24:59;;;;;;;5.78;2.85;;;11.20;99.90;;;;;;5059515;28;20716;-73
2022/09/26 03:27:26;;;;;;;5.47;2.72;;;11.10;99.90;;;;;;5073708;28;20504;-73
2022/09/26 03:29:52;;;;;;;5.95;2.90;;;11.20;99.90;;;;;;5065557;28;20046;-73
2022/09/26 03:32:17;;;;;;;5.25;2.88;;;11.20;99.90;;;;;;5034142;28;20093;-73
2022/09/26 03:34:43;;;;;;;5.47;3.15;;;11.20;99.90;;;;;;5079987;28;20068;-73
2022/09/26 03:37:10;;;;;;;7.85;3.50;;;11.20;99.90;;;;;;5052989;28;20046;-72
2022/09/26 03:39:36;;;;;;;7.82;3.40;;;11.80;99.90;;;;;;5070807;28;20081;-73
2022/09/26 03:42:01;;;;;;;4.68;3.42;;;11.20;99.90;;;;;;5067688;28;20065;-73
2022/09/26 03:44:28;;;;;;;7.18;3.30;;;11.20;99.90;;;;;;5038194;28;20030;-73
2022/09/26 03:46:54;;;;;;;5.47;3.38;;;11.20;99.90;;;;;;5054620;28;20042;-73
2022/09/26 03:49:20;;;;;;;8.75;3.88;;;11.20;99.90;;;;;;5052668;28;20565;-73
2022/09/26 03:51:45;;;;;;;5.07;3.20;;;11.20;99.90;;;;;;5083149;28;20082;-74
2022/09/26 03:54:12;;;;;;;9.03;3.93;;;11.20;99.90;;;;;;5072413;28;20045;-74
2022/09/26 03:56:39;;;;;;;7.00;4.07;;;11.10;99.90;;;;;;5064475;28;20035;-73
2022/09/26 03:59:05;;;;;;;7.25;3.92;;;11.10;99.90;;;;;;5061114;28;20521;-74
2022/09/26 04:01:31;;;;;;;5.07;3.20;;;11.10;99.90;;;;;;5070923;28;20084;-74
2022/09/26 04:03:56;;;;;;;5.67;3.50;;;11.00;99.90;;;;;;5060327;28;20364;-72
2022/09/26 04:06:22;;;;;;;7.35;3.65;;;11.00;99.90;;;;;;5072562;28;20079;-72
2022/09/26 04:08:50;;;;;;;8.43;3.88;;;11.00;99.90;;;;;;5040530;28;20047;-72
2022/09/26 04:11:21;;;;;;;11.52;4.38;;;11.00;99.90;;;;;;5071301;28;20046;-73
2022/09/26 04:13:48;;;;;;;7.78;4.30;;;11.10;99.90;;;;;;5084754;28;20121;-72
2022/09/26 04:16:14;;;;;;;7.20;4.28;;;11.00;99.90;;;;;;5082880;28;20482;-73
2022/09/26 04:18:39;;;;;;;8.15;4.03;;;11.00;99.90;;;;;;5078505;28;20488;-72
2022/09/26 04:21:12;;;;;;;7.77;4.60;;;11.00;99.90;;;;;;5055015;28;20125;-71
2022/09/26 04:23:39;;;;;;;7.50;3.97;;;11.10;99.90;;;;;;5075646;28;20033;-73
2022/09/26 04:26:17;;;;;;;5.43;3.50;;;11.00;99.90;;;;;;5064133;28;20091;-73
2022/09/26 04:28:43;;;;;;;7.85;4.32;;;11.10;99.90;;;;;;5053060;28;20538;-73
2022/09/26 04:31:09;;;;;;;;;;;11.10;99.90;;;;;;5072192;28;20093;-73
2022/09/26 04:33:38;;;;;;;7.60;3.97;;;11.10;99.90;;;;;;5067595;28;19921;-73
2022/09/26 04:36:06;;;;;;;9.48;4.25;;;11.10;99.90;;;;;;5048198;28;20383;-72
2022/09/26 04:38:32;;;;;;;8.25;4.43;;;11.10;99.90;;;;;;5051585;28;20165;-73
2022/09/26 04:41:03;;;;;;;8.05;4.72;;;11.10;99.90;;;;;;5065374;28;20133;-73
2022/09/26 04:43:29;;;;;;;8.70;4.47;;;11.10;99.90;;;;;;5079549;28;20105;-74
2022/09/26 04:45:55;;;;;;;9.05;5.38;;;11.10;99.90;;;;;;5051127;28;20116;-74
2022/09/26 04:48:20;;;;;;;8.77;4.60;;;11.00;99.90;;;;;;5056787;28;20049;-74
2022/09/26 04:50:46;;;;;;;9.07;4.77;;;11.00;99.90;;;;;;5059846;28;20806;-73
2022/09/26 04:53:12;;;;;;;9.37;5.00;;;11.00;99.90;;;;;;5081148;28;20038;-72
2022/09/26 04:55:43;;;;;;;8.45;4.78;;;11.00;99.90;;;;;;5068020;28;20312;-72
2022/09/26 04:58:09;;;;;;;8.02;4.68;;;11.10;99.90;;;;;;5075783;28;20034;-73
2022/09/26 05:00:35;;;;;;;5.78;3.97;;;11.00;99.90;;;;;;5060208;28;20030;-73
2022/09/26 05:03:01;;;;;;;8.20;3.97;;;11.00;99.90;;;;;;5069759;28;20409;-74
2022/09/26 05:05:29;;;;;;;8.07;5.43;;;11.10;99.90;;;;;;5060074;28;20046;-73
2022/09/26 05:07:56;;;;;;;8.93;4.95;;;11.10;99.90;;;;;;5076838;28;20112;-73
2022/09/26 05:10:22;;;;;;;8.48;4.55;;;11.10;99.90;;;;;;5085695;28;20052;-73
2022/09/26 05:12:47;;;;;;;8.07;4.45;;;11.00;99.90;;;;;;5076691;28;20046;-73
2022/09/26 05:15:13;;;;;;;9.13;4.60;;;11.00;99.90;;;;;;5082220;28;20038;-74
2022/09/26 05:17:39;;;;;;;9.80;5.00;;;11.10;99.90;;;;;;5059270;28;20094;-73
2022/09/26 05:20:09;;;;;;;7.43;4.63;;;11.10;99.90;;;;;;5069327;28;20069;-73
2022/09/26 05:22:35;;;;;;;11.18;4.70;;;11.10;99.90;;;;;;5076545;28;20049;-73
2022/09/26 05:27:47;;;;;;;12.45;6.00;;;11.00;99.90;;;;;;5074638;28;20115;-73
2022/09/26 05:30:13;;;;;;;8.82;5.05;;;11.00;99.90;;;;;;5075932;28;20046;-74
2022/09/26 05:32:39;;;;;;;11.35;6.00;;;10.90;99.90;;;;;;5075333;28;20055;-74
2022/09/26 05:35:06;;;;;;;8.73;5.32;;;10.90;99.90;;;;;;5070275;28;20043;-73
2022/09/26 05:37:32;;;;;;;11.90;5.57;;;10.90;99.90;;;;;;5074486;28;20062;-73
2022/09/26 05:42:42;;;;;;;11.55;6.22;;;10.90;99.90;;;;;;5057452;28;20081;-73
2022/09/26 05:45:08;;;;;;;8.90;4.60;;;10.90;99.90;;;;;;5069716;28;20081;-73
2022/09/26 05:47:35;;;;;;;10.23;5.72;;;10.90;99.90;;;;;;5059454;28;20046;-73
2022/09/26 05:50:03;;;;;;;;;;;10.90;99.90;;;;;;5058747;28;20132;-74
2022/09/26 05:52:29;;;;;;;7.95;5.68;;;10.90;99.90;;;;;;5063013;28;20430;-74
2022/09/26 05:54:55;;;;;;;7.28;4.88;;;10.90;99.90;;;;;;5055886;28;20045;-73
2022/09/26 05:57:21;;;;;;;7.83;5.00;;;11.00;99.90;;;;;;5075368;28;20042;-73
2022/09/26 05:59:46;;;;;;;7.33;4.73;;;10.90;99.90;;;;;;5063472;28;20073;-73
2022/09/26 06:02:12;;;;;;;8.70;5.00;;;11.00;99.90;;;;;;5081545;28;20034;-73
2022/09/26 06:04:37;;;;;;;7.17;4.80;;;10.90;99.90;;;;;;5072529;28;20276;-74
2022/09/26 06:07:04;;;;;;;7.27;5.43;;;10.80;99.90;;;;;;5069414;28;20289;-74
2022/09/26 06:09:30;;;;;;;7.13;4.60;;;10.80;99.90;;;;;;5069190;28;20038;-73
2022/09/26 06:11:56;;;;;;;5.60;4.57;;;10.90;99.90;;;;;;5064919;28;20091;-74
2022/09/26 06:14:24;;;;;;;9.05;4.97;;;10.80;99.90;;;;;;5056822;28;20453;-74
2022/09/26 06:16:49;;;;;;;7.55;4.45;;;10.90;99.90;;;;;;5069116;28;20506;-74
2022/09/26 06:19:15;;;;;;;8.40;5.13;;;10.80;99.90;;;;;;5041706;28;20168;-74
2022/09/26 06:21:42;;;;;;;8.50;4.50;;;10.80;99.90;;;;;;5065666;28;20042;-74
2022/09/26 06:24:09;;;;;;;8.60;4.93;;;10.70;99.90;;;;;;5054797;28;20038;-74
2022/09/26 06:26:36;;;;;;;9.75;4.43;;;10.80;99.90;;;;;;5058241;28;20042;-74
2022/09/26 06:29:03;;;;;;;7.43;4.40;;;10.80;99.90;;;;;;5072250;28;20047;-74
2022/09/26 06:31:29;;;;;;;8.52;4.13;;;11.10;99.90;;;;;;5068733;28;20042;-74
2022/09/26 06:33:54;;;;;;;9.57;4.78;;;10.80;99.90;;;;;;5057152;28;20097;-74
2022/09/26 06:36:22;;;;;;;8.20;4.18;;;10.80;99.90;;;;;;5056641;28;20132;-74
2022/09/26 06:38:48;;;;;;;7.07;4.43;;;10.90;99.90;;;;;;5083464;28;20420;-74
2022/09/26 06:41:15;;;;;;;8.27;4.78;;;11.00;99.90;;;;;;5056645;28;20034;-73
2022/09/26 06:43:44;;;;;;;;;;;10.90;99.90;;;;;;5063896;28;20049;-74
2022/09/26 06:46:11;;;;;;;9.60;4.00;;;10.90;99.90;;;;;;5072657;28;19921;-74
2022/09/26 06:48:37;;;;;;;7.68;4.25;;;10.90;99.90;;;;;;5066939;28;20042;-73
2022/09/26 06:51:03;;;;;;;6.40;4.00;;;10.90;99.90;;;;;;5069856;28;20039;-74
2022/09/26 06:53:29;;;;;;;6.60;4.05;;;10.80;99.90;;;;;;5073840;28;20032;-74
2022/09/26 06:55:57;;;;;;;8.95;3.85;;;10.80;99.90;;;;;;5057040;28;20034;-73
2022/09/26 06:58:23;;;;;;;8.90;3.88;;;10.90;99.90;;;;;;5057344;28;20439;-74
2022/09/26 07:00:48;;;;;;;6.25;4.13;;;10.80;99.90;;;;;;5045157;28;20042;-73
2022/09/26 07:03:14;;;;;;;5.82;3.75;;;10.80;99.90;;;;;;5058433;28;20093;-74
2022/09/26 07:05:41;;;;;;;6.68;4.03;;;10.80;99.90;;;;;;5074458;28;20545;-73
2022/09/26 07:08:06;;;;;;;;;;;10.90;99.90;;;;;;5040476;28;20051;-74
2022/09/26 07:10:35;;;;;;;8.93;4.15;;;10.80;99.90;;;;;;5073205;28;20355;-74
2022/09/26 07:13:04;;;;;;;7.07;3.92;;;10.80;99.90;;;;;;5073961;28;20040;-74
2022/09/26 07:15:32;;;;;;;8.63;4.13;;;10.90;99.90;;;;;;5071458;28;20455;-74
2022/09/26 07:18:01;;;;;;;11.05;3.88;;;10.90;99.90;;;;;;5078917;28;20401;-74
2022/09/26 07:20:32;;;;;;;5.95;3.58;;;10.90;99.90;;;;;;5073061;28;20040;-73
2022/09/26 07:23:02;;;;;;;8.95;4.10;;;10.90;99.90;;;;;;5075628;28;20042;-74
2022/09/26 07:25:30;;;;;;;6.72;3.88;;;10.90;99.90;;;;;;5065076;28;20083;-74
2022/09/26 07:27:56;;;;;;;9.10;3.53;;;10.90;99.90;;;;;;5074831;28;20503;-73
2022/09/26 07:30:22;;;;;;;7.80;2.85;;;10.80;99.90;;;;;;5074573;28;20038;-74
2022/09/26 07:32:48;;;;;;;8.82;3.70;;;10.90;99.90;;;;;;5069518;28;20110;-74
2022/09/26 07:35:16;;;;;;;8.73;3.20;;;10.90;99.90;;;;;;5048643;28;20487;-74
2022/09/26 07:37:43;;;;;;;5.53;3.53;;;11.00;99.90;;;;;;5057637;28;20080;-73
2022/09/26 07:40:09;;;;;;;6.05;3.35;;;10.90;99.90;;;;;;5080362;28;20210;-74
2022/09/26 07:42:37;;;;;;;;;;;10.90;99.90;;;;;;5056553;28;20042;-73
2022/09/26 07:45:04;;;;;;;6.97;3.45;;;10.90;99.90;;;;;;5058264;28;19928;-73
2022/09/26 07:50:18;;;;;;;;;;;10.90;99.90;;;;;;5070677;28;20536;-73
2022/09/26 07:52:46;;;;;;;6.55;3.88;;;11.00;99.90;;;;;;5046432;28;19921;-73
2022/09/26 07:55:23;;;;;;;4.45;3.00;;;10.90;99.90;;;;;;5074570;28;20038;-73
2022/09/26 07:57:49;;;;;;;4.68;3.20;;;10.90;99.90;;;;;;5085380;28;20495;-73
2022/09/26 08:00:18;;;;;;;8.00;2.97;;;11.00;99.90;;;;;;5072275;28;20505;-74
2022/09/26 08:02:47;;;;;;;4.95;2.80;;;11.00;99.90;;;;;;5078536;28;20096;-73
2022/09/26 08:05:18;;;;;;;6.80;2.90;;;11.00;99.90;;;;;;5057801;28;20101;-73
2022/09/26 08:07:45;;;;;;;5.65;2.92;;;11.10;99.90;;;;;;5079637;28;20042;-73
2022/09/26 08:10:18;;;;;;;;;;;11.20;99.90;;;;;;5073053;28;20511;-74
2022/09/26 08:12:47;;;;;;;3.75;2.63;;;11.30;99.90;;;;;;5078536;28;19932;-73
2022/09/26 08:15:14;;;;;;;5.75;2.75;;;11.30;99.90;;;;;;5061137;28;20042;-73
2022/09/26 08:17:40;;;;;;;6.38;2.78;;;11.30;99.90;;;;;;5073709;28;20050;-73
2022/09/26 08:20:06;;;;;;;6.20;2.60;;;11.40;99.90;;;;;;5071991;28;20389;-73
2022/09/26 08:22:32;;;;;;;8.60;2.95;;;11.40;99.90;;;;;;5072974;28;20045;-73
2022/09/26 08:24:59;;;;;;;6.35;2.70;;;11.30;99.90;;;;;;5074592;28;20471;-73
2022/09/26 08:27:25;;;;;;;6.97;3.20;;;11.40;99.90;;;;;;5048730;28;20074;-73
2022/09/26 08:29:51;;;;;;;5.68;3.20;;;11.40;99.90;;;;;;4988656;28;20051;-74
2022/09/26 08:32:18;;;;;;;5.47;2.60;;;11.40;99.90;;;;;;4975772;28;20124;-73
2022/09/26 08:34:45;;;;;;;8.77;2.85;;;11.50;99.90;;;;;;5070787;28;20413;-73
2022/09/26 08:37:12;;;;;;;4.22;2.80;;;11.50;99.90;;;;;;5003931;28;20050;-73
2022/09/26 08:39:38;;;;;;;4.60;2.63;;;11.40;99.90;;;;;;4988407;28;20091;-73
2022/09/26 08:42:10;;;;;;;3.90;2.83;;;11.40;99.90;;;;;;4972535;28;20039;-74
2022/09/26 08:44:55;;;;;;;10.07;3.55;;;11.40;99.90;;;;;;4994950;28;20096;-74
2022/09/26 08:47:31;;;;;;;5.97;3.03;;;11.30;99.90;;;;;;4988697;28;20478;-73
2022/09/26 08:50:20;;;;;;;4.90;2.90;;;11.20;99.90;;;;;;4989041;28;20050;-73
2022/09/26 08:52:49;;;;;;;6.93;2.83;;;11.30;99.90;;;;;;5044048;28;20041;-73
2022/09/26 08:55:29;;;;;;;7.00;3.08;;;11.30;99.90;;;;;;4998431;28;20042;-73
2022/09/26 08:58:00;;;;;;;7.30;2.63;;;11.40;99.90;;;;;;5021966;28;20044;-74
2022/09/26 09:00:30;;;;;;;6.18;3.10;;;11.50;99.90;;;;;;5039645;28;20032;-73
2022/09/26 09:03:10;;;;;;;6.43;3.15;;;11.50;99.90;;;;;;5027343;28;20463;-73
2022/09/26 09:05:39;;;;;;;4.88;3.28;;;11.50;99.90;;;;;;4988086;28;20121;-74
2022/09/26 09:08:21;;;;;;;5.32;3.30;;;11.50;99.90;;;;;;4972378;28;20043;-73
2022/09/26 09:10:50;;;;;;;5.85;3.17;;;11.50;99.90;;;;;;4988177;28;20076;-73
2022/09/26 09:13:29;;;;;;;6.45;2.97;;;11.60;99.90;;;;;;4988378;28;20134;-74
2022/09/26 09:16:25;;;;;;;6.85;3.40;;;11.60;99.90;;;;;;5001186;28;20074;-73
2022/09/26 09:18:57;;;;;;;5.30;2.72;;;11.50;99.90;;;;;;4988304;28;20132;-73
2022/09/26 09:21:43;;;;;;;6.60;3.30;;;11.60;99.90;;;;;;5013736;28;20034;-73
2022/09/26 09:24:26;;;;;;;5.50;3.08;;;11.60;99.90;;;;;;5029901;28;20044;-73
2022/09/26 09:27:17;;;;;;;5.88;3.33;;;11.60;99.90;;;;;;5057445;28;20494;-74
2022/09/26 09:29:56;;;;;;;5.57;2.97;;;11.70;99.90;;;;;;5077634;28;20083;-73
2022/09/26 09:32:30;;;;;;;4.97;2.90;;;11.70;99.90;;;;;;5088434;28;20039;-73
2022/09/26 09:34:56;;;;;;;8.63;2.75;;;11.80;99.90;;;;;;5088194;28;20401;-73
2022/09/26 09:37:28;;;;;;;6.07;3.00;;;11.80;99.90;;;;;;5082039;28;20120;-73
2022/09/26 09:39:55;;;;;;;7.70;2.97;;;11.80;99.90;;;;;;5089883;28;20382;-73
2022/09/26 09:42:29;;;;;;;3.85;2.72;;;11.80;99.90;;;;;;5090479;28;20032;-74
2022/09/26 09:45:14;;;;;;;5.40;2.97;;;11.80;99.90;;;;;;5055212;28;20489;-74
2022/09/26 09:47:42;;;;;;;5.88;2.90;;;11.80;99.90;;;;;;5089372;28;20032;-74
2022/09/26 09:50:16;;;;;;;10.13;3.50;;;11.80;99.90;;;;;;5073530;28;20032;-74
2022/09/26 09:52:42;;;;;;;8.68;3.63;;;11.90;99.90;;;;;;5087128;28;20048;-74
2022/09/26 09:55:45;;;;;;;4.60;2.77;;;11.80;99.90;;;;;;5085910;28;20040;-74
2022/09/26 09:58:35;;;;;;;10.68;3.22;;;11.70;99.90;;;;;;5087800;28;20278;-74
2022/09/26 10:01:24;;;;;;;7.88;3.58;;;11.80;99.90;;;;;;5087216;28;20079;-74
2022/09/26 10:04:04;;;;;;;10.25;3.58;;;11.80;99.90;;;;;;5071760;28;20042;-74
2022/09/26 10:06:31;;;;;;;4.07;3.15;;;11.90;99.90;;;;;;5088131;28;20135;-74
2022/09/26 10:08:57;;;;;;;4.95;3.78;;;11.90;99.90;;;;;;5065917;28;20509;-74
2022/09/26 10:11:30;;;;;;;8.85;3.97;;;11.90;99.90;;;;;;5089977;28;20044;-74
2022/09/26 10:14:06;;;;;;;5.63;3.97;;;11.90;99.90;;;;;;5082683;28;20040;-74
2022/09/26 10:16:33;;;;;;;5.93;3.15;;;11.90;99.90;;;;;;5074683;28;20043;-74
2022/09/26 10:19:04;;;;;;;8.10;4.32;;;11.90;99.90;;;;;;5066946;28;20044;-74
2022/09/26 10:21:42;;;;;;;8.80;4.25;;;11.80;99.90;;;;;;5079290;28;20055;-74
2022/09/26 10:24:33;;;;;;;7.00;3.85;;;11.80;99.90;;;;;;5088437;28;20032;-74
2022/09/26 10:27:36;;;;;;;8.88;4.05;;;11.90;99.90;;;;;;5071911;28;20055;-74
2022/09/26 10:30:17;;;;;;;7.03;4.55;;;11.90;99.90;;;;;;5018841;28;20056;-74
2022/09/26 10:32:49;;;;;;;9.20;4.82;;;12.00;99.90;;;;;;4996080;28;20038;-74
2022/09/26 10:35:24;;;;;;;8.15;4.75;;;11.90;99.90;;;;;;4970927;28;20066;-74
2022/09/26 10:38:02;;;;;;;6.90;4.43;;;11.80;99.90;;;;;;5006582;28;20042;-74
2022/09/26 10:40:45;;;;;;;8.88;5.20;;;11.80;99.90;;;;;;5063617;28;20036;-74
2022/09/26 10:43:30;;;;;;;12.32;5.13;;;11.80;99.90;;;;;;5027154;28;20034;-74
2022/09/26 10:46:17;;;;;;;7.22;4.88;;;11.80;99.90;;;;;;4986860;28;20034;-74
2022/09/26 10:48:49;;;;;;;9.18;3.88;;;11.80;99.90;;;;;;4986660;28;20054;-74
2022/09/26 10:51:23;;;;;;;10.57;5.00;;;11.80;99.90;;;;;;4979866;28;20045;-74
2022/09/26 10:53:54;;;;;;;7.35;4.75;;;11.80;99.90;;;;;;5069004;28;20127;-74
2022/09/26 10:56:27;;;;;;;8.98;5.05;;;11.70;99.90;;;;;;5067942;28;20041;-74
2022/09/26 10:58:58;;;;;;;8.90;5.63;;;11.80;99.90;;;;;;5068388;28;20075;-74
2022/09/26 11:01:28;;;;;;;14.02;5.22;;;11.80;99.90;;;;;;5068822;28;20036;-74
2022/09/26 11:03:59;;;;;;;10.75;5.90;;;11.90;99.90;;;;;;4996581;28;20399;-74
2022/09/26 11:06:30;;;;;;;13.55;5.85;;;11.90;99.90;;;;;;5035636;28;20028;-74
2022/09/26 11:09:02;;;;;;;9.45;5.80;;;11.80;99.90;;;;;;5051399;28;20119;-74
2022/09/26 11:11:35;;;;;;;11.18;6.00;;;11.70;99.90;;;;;;5052348;28;20032;-74
2022/09/26 11:14:06;;;;;;;9.50;5.47;;;11.70;99.90;;;;;;5008668;28;20457;-74
2022/09/26 11:16:52;;;;;;;8.45;5.22;;;11.70;99.90;;;;;;5042737;28;20501;-74
2022/09/26 11:19:27;;;;;;;9.70;5.55;;;11.70;99.90;;;;;;5068277;28;21043;-74
2022/09/26 11:22:29;;;;;;;7.85;5.70;;;11.70;99.90;;;;;;5009431;28;20059;-74
2022/09/26 11:25:05;;;;;;;9.27;5.18;;;11.60;99.90;;;;;;5029182;28;20382;-74
2022/09/26 11:27:45;;;;;;;7.75;5.32;;;11.60;99.90;;;;;;5055053;28;20048;-74
2022/09/26 11:30:21;;;;;;;9.02;5.10;;;11.60;99.90;;;;;;5088851;28;20040;-73
2022/09/26 11:32:55;;;;;;;9.02;4.65;;;11.70;99.90;;;;;;5088339;28;20044;-73
2022/09/26 11:35:43;;;;;;;6.90;4.85;;;11.60;99.90;;;;;;5074031;28;20044;-74
2022/09/26 11:38:27;;;;;;;6.22;4.68;;;11.70;99.90;;;;;;5087009;28;20048;-73
2022/09/26 11:41:15;;;;;;;7.93;4.55;;;11.80;99.90;;;;;;5078333;28;20044;-73
2022/09/26 11:43:55;;;;;;;6.35;4.65;;;11.80;99.90;;;;;;5086966;28;20048;-74
2022/09/26 11:46:58;;;;;;;6.72;4.32;;;11.80;99.90;;;;;;5072042;28;20047;-74
2022/09/26 11:49:41;;;;;;;6.95;4.20;;;11.90;99.90;;;;;;5073186;28;20055;-74
2022/09/26 11:52:19;;;;;;;5.38;3.25;;;11.90;99.90;;;;;;5067079;28;20033;-73
2022/09/26 11:55:08;;;;;;;5.10;3.65;;;12.00;99.90;;;;;;5088413;28;20497;-74
2022/09/26 11:57:43;;;;;;;3.97;3.33;;;12.00;99.90;;;;;;5088578;28;20123;-74
2022/09/26 12:00:26;;;;;;;7.88;4.07;;;12.00;99.90;;;;;;5071490;28;20101;-74
2022/09/26 12:03:26;;;;;;;5.22;3.60;;;12.00;99.90;;;;;;5072897;28;20036;-73
2022/09/26 12:06:09;;;;;;;4.47;3.75;;;12.10;99.90;;;;;;5080443;28;20509;-74
2022/09/26 12:09:06;;;;;;;5.82;3.75;;;12.10;99.90;;;;;;5088849;28;20044;-73
2022/09/26 12:12:04;;;;;;;3.85;3.40;;;12.10;99.90;;;;;;5084774;28;20036;-73
2022/09/26 12:14:33;;;;;;;;;;;12.20;99.90;;;;;;5066680;28;20053;-73
2022/09/26 12:17:34;;;;;;;7.15;4.22;;;12.20;99.90;;;;;;5073642;28;19963;-74
2022/09/26 12:20:38;;;;;;;5.70;4.10;;;12.20;99.90;;;;;;5057522;28;20084;-73
2022/09/26 12:23:28;;;;;;;5.90;4.18;;;12.10;99.90;;;;;;5073192;28;20028;-73
2022/09/26 12:26:28;;;;;;;7.15;4.45;;;12.20;99.90;;;;;;5091764;28;20044;-73
2022/09/26 12:28:58;;;;;;;4.97;3.75;;;12.20;99.90;;;;;;5052145;28;20428;-73
2022/09/26 12:31:30;;;;;;;5.10;3.25;;;12.20;99.90;;;;;;5091668;28;20139;-74
2022/09/26 12:34:41;;;;;;;4.47;3.20;;;12.20;99.90;;;;;;5067267;28;20036;-74
2022/09/26 12:37:18;;;;;;;7.03;3.72;;;12.20;99.90;;;;;;5079949;28;20097;-73
2022/09/26 12:40:10;;;;;;;7.80;4.07;;;12.20;99.90;;;;;;5083387;28;20098;-74
2022/09/26 12:42:41;;;;;;;5.53;4.57;;;12.20;99.90;;;;;;5053872;28;20035;-74
2022/09/26 12:45:28;;;;;;;4.43;3.92;;;12.20;99.90;;;;;;5071891;28;20072;-74
2022/09/26 12:48:18;;;;;;;6.15;4.30;;;12.30;99.90;;;;;;5072430;28;20036;-74
2022/09/26 12:51:06;;;;;;;6.65;4.32;;;12.30;99.90;;;;;;5070982;28;20044;-74
2022/09/26 12:53:43;;;;;;;6.25;3.85;;;12.30;99.90;;;;;;5091387;28;20566;-73
2022/09/26 12:56:21;;;;;;;4.88;3.95;;;12.30;99.90;;;;;;5078537;28;20067;-73
2022/09/26 12:58:58;;;;;;;5.75;4.38;;;12.30;99.90;;;;;;5090654;28;20052;-73
2022/09/26 13:01:34;;;;;;;5.43;4.05;;;12.40;99.90;;;;;;5090816;28;20039;-74
2022/09/26 13:04:00;;;;;;;5.68;4.18;;;12.40;99.90;;;;;;5081299;28;20498;-74
2022/09/26 13:06:54;;;;;;;5.30;4.23;;;12.40;99.90;;;;;;5089015;28;20032;-74
2022/09/26 13:09:43;;;;;;;5.38;3.90;;;12.40;99.90;;;;;;5080753;28;20541;-74
2022/09/26 13:12:32;;;;;;;5.65;3.83;;;12.50;99.90;;;;;;5077780;28;20048;-74
2022/09/26 13:15:13;;;;;;;4.60;3.67;;;12.70;99.90;;;;;;5080553;28;20047;-74
2022/09/26 13:17:45;;;;;;;5.05;3.45;;;12.70;99.90;;;;;;5080774;28;20040;-73
2022/09/26 13:20:17;;;;;;;5.20;3.03;;;12.80;99.90;;;;;;5069361;28;20040;-73
2022/09/26 13:23:08;;;;;;;3.38;3.00;;;12.80;99.90;;;;;;5091060;28;20044;-74
2022/09/26 13:25:43;;;;;;;4.15;2.58;;;12.80;99.90;;;;;;5078925;28;20040;-74
2022/09/26 13:28:39;;;;;;;3.75;3.05;;;12.90;99.90;;;;;;5080009;28;20055;-74
2022/09/26 13:31:16;;;;;;;3.17;2.58;;;13.00;99.90;;;;;;5084740;28;20127;-74